Flight Track Log - Related Links

Times and Time Zones

All times are in EDT time to prevent confusion due to time zone crossing. See the ASH3759 flight status page for this flight to view local times or setup timezone preferences in your user account.

Time Position Orientation Groundspeed Altitude Reporting Facility
EDT Latitude Longitude Course Direction KTS MPH feet Rate Location/Type
Mon 09:10:51 PM 41.9167 -87.9000 180° South 170 196 3,000  Level Chicago TRACON
Mon 09:11:37 PM 41.8753 -87.8922 172° South 198 228 4,900 2,222 Climbing Chicago Center
Mon 09:12:39 PM 41.8139 -87.8478 152° Southeast 254 292 7,000 2,323 Climbing Chicago Center
Mon 09:13:41 PM 41.7403 -87.7956 152° Southeast 297 342 9,700 2,806 Climbing Chicago Center
Mon 09:14:43 PM 41.6558 -87.7358 152° Southeast 315 362 12,800 2,806 Climbing Chicago Center
Mon 09:15:45 PM 41.5756 -87.6783 152° Southeast 319 367 15,500 2,081 Climbing Chicago Center
Mon 09:16:00 PM 41.3914 -87.4447 180° South  Level Estimated
Mon 09:16:47 PM 41.4914 -87.6197 152° Southeast 338 389 17,100  Level Chicago Center
Mon 09:17:49 PM 41.3919 -87.5661 158° South 368 423 19,300 1,839 Climbing Chicago Center
Mon 09:18:51 PM 41.2850 -87.5478 173° South 381 438 20,900 1,645 Climbing Chicago Center
Mon 09:19:53 PM 41.1742 -87.5283 172° South 395 455 22,700 1,694 Climbing Chicago Center
Mon 09:20:55 PM 41.0633 -87.4958 168° South 400 460 24,400 1,548 Climbing Chicago Center
Mon 09:21:57 PM 40.9486 -87.4650 169° South 412 474 25,900 1,355 Climbing Chicago Center
Mon 09:22:59 PM 40.8325 -87.4356 169° South 421 484 27,200 1,452 Climbing Chicago Center
Mon 09:24:01 PM 40.6886 -87.3969 168° South 435 501 28,900 1,306 Climbing Chicago Center
Mon 09:25:03 PM 40.5692 -87.3667 169° South 435 501 29,900 1,016 Climbing Chicago Center
Mon 09:26:05 PM 40.4397 -87.3281 167° South 442 509 31,000 1,161 Climbing Chicago Center
Mon 09:27:07 PM 40.3192 -87.2736 161° South 458 527 32,300 1,065 Climbing Chicago Center
Mon 09:28:09 PM 40.2100 -87.1919 150° Southeast 451 519 33,200 1,161 Climbing Chicago Center
Mon 09:29:11 PM 40.1019 -87.1058 149° Southeast 455 524 34,700 1,404 Climbing Chicago Center
Mon 09:29:43 PM 40.0367 -87.0547 149° Southeast 455 524 35,400 1,213 Climbing Indianapolis Center
Mon 09:30:45 PM 39.9297 -86.9697 149° Southeast 454 522 36,600 1,024 Climbing Indianapolis Center
Mon 09:31:46 PM 39.8242 -86.8878 149° Southeast 449 517 37,500 787 Climbing Indianapolis Center
Mon 09:32:47 PM 39.7186 -86.8056 149° Southeast 449 517 38,200 732 Climbing Indianapolis Center
Mon 09:33:49 PM 39.6136 -86.7247 149° Southeast 448 516 39,000 390 Climbing Indianapolis Center
Mon 09:34:50 PM 39.4858 -86.6256 149° Southeast 448 516 39,000  Level Indianapolis Center
Mon 09:35:52 PM 39.3756 -86.5403 149° Southeast 459 528 39,000  Level Indianapolis Center
Mon 09:37:00 PM 39.2636 -86.4486 148° Southeast  Level FlightAware Approximate
Mon 09:37:55 PM 39.1531 -86.3667 149° Southeast 467 537 39,000  Level Indianapolis Center
Mon 09:38:56 PM 39.0408 -86.2825 150° Southeast 467 537 39,000  Level Indianapolis Center
Mon 09:39:57 PM 38.9281 -86.1956 149° Southeast 469 540 39,000  Level Indianapolis Center
Mon 09:40:59 PM 38.8125 -86.1083 150° Southeast 469 540 39,000  Level Indianapolis Center
Mon 09:42:00 PM 38.6967 -86.0222 150° Southeast 474 545 39,000  Level Indianapolis Center
Mon 09:43:01 PM 38.5814 -85.9339 149° Southeast 474 545 39,000  Level Indianapolis Center
Mon 09:44:00 PM 38.5383 -85.8952 149° Southeast  Level FlightAware Approximate
Mon 09:44:03 PM 38.4656 -85.8469 150° Southeast 478 550 39,000  Level Indianapolis Center
Mon 09:45:04 PM 38.3264 -85.7433 150° Southeast 478 550 39,000  Level Indianapolis Center
Mon 09:46:06 PM 38.2106 -85.6569 150° Southeast 478 550 39,000  Level Indianapolis Center
Mon 09:47:06 PM 38.0953 -85.5706 149° Southeast 478 550 39,000  Level Indianapolis Center
Mon 09:48:08 PM 37.9844 -85.4786 147° Southeast 478 550 39,000  Level Indianapolis Center
Mon 09:49:09 PM 37.8733 -85.3842 146° Southeast 478 550 39,000  Level Indianapolis Center
Mon 09:50:10 PM 37.7561 -85.2906 148° Southeast 478 550 39,000  Level Indianapolis Center
Mon 09:51:12 PM 37.6428 -85.1981 147° Southeast 479 551 39,000  Level Indianapolis Center
Mon 09:52:13 PM 37.5333 -85.1039 146° Southeast 479 551 39,000  Level Indianapolis Center
Mon 09:53:14 PM 37.4203 -85.0139 148° Southeast 479 551 39,000  Level Indianapolis Center
Mon 09:54:16 PM 37.3069 -84.9217 147° Southeast 480 552 39,000  Level Indianapolis Center
Mon 09:55:17 PM 37.1964 -84.8317 147° Southeast 479 551 39,000  Level Indianapolis Center
Mon 09:56:18 PM 37.0833 -84.7431 148° Southeast 479 551 39,000  Level Indianapolis Center
Mon 09:57:19 PM 36.9692 -84.6506 147° Southeast 477 549 39,000  Level Indianapolis Center
Mon 09:58:21 PM 36.8583 -84.5625 148° Southeast 476 548 39,000  Level Indianapolis Center
Mon 09:59:22 PM 36.7319 -84.4614 147° Southeast 476 548 39,000  Level Indianapolis Center
Mon 10:00:23 PM 36.6214 -84.3739 148° Southeast 476 548 39,000  Level Indianapolis Center
Mon 10:01:25 PM 36.5014 -84.2792 148° Southeast 475 547 39,000  Level Indianapolis Center
Mon 10:02:26 PM 36.3897 -84.1919 148° Southeast 475 547 39,000  Level Indianapolis Center
Mon 10:03:27 PM 36.2778 -84.1033 147° Southeast 475 547 39,000  Level Indianapolis Center
Mon 10:04:28 PM 36.1650 -84.0158 148° Southeast 475 547 39,000  Level Indianapolis Center
Mon 10:05:30 PM 36.0536 -83.9289 148° Southeast 474 545 39,000  Level Indianapolis Center
Mon 10:06:31 PM 35.9369 -83.8394 148° Southeast 470 541 39,000  Level Indianapolis Center
Mon 10:07:31 PM 35.8369 -83.7622 148° Southeast 474 545 39,000  Level Atlanta Center
Mon 10:08:31 PM 35.7261 -83.6756 148° Southeast 474 545 39,000  Level Atlanta Center
Mon 10:09:31 PM 35.6194 -83.5942 148° Southeast 474 545 39,000  Level Atlanta Center
Mon 10:10:31 PM 35.5106 -83.5081 147° Southeast 474 545 39,000  Level Atlanta Center
Mon 10:11:31 PM 35.3975 -83.4247 149° Southeast 474 545 39,000  Level Atlanta Center
Mon 10:12:31 PM 35.2886 -83.3417 148° Southeast 474 545 39,000  Level Atlanta Center
Mon 10:13:31 PM 35.1669 -83.2511 149° Southeast 474 545 39,000  Level Atlanta Center
Mon 10:14:31 PM 35.0558 -83.1686 149° Southeast 474 545 39,000  Level Atlanta Center
Mon 10:15:31 PM 34.9447 -83.0833 148° Southeast 474 545 39,000  Level Atlanta Center
Mon 10:16:31 PM 34.8417 -83.0011 147° Southeast 481 554 39,000  Level Atlanta Center
Mon 10:17:31 PM 34.7303 -82.9192 149° Southeast 481 554 39,000  Level Atlanta Center
Mon 10:18:31 PM 34.6147 -82.8322 148° Southeast 481 554 39,000  Level Atlanta Center
Mon 10:19:31 PM 34.5033 -82.7508 149° Southeast 481 554 39,000 -450 Level Atlanta Center
Mon 10:20:31 PM 34.3897 -82.6644 148° Southeast 480 552 38,100 -850 Descending Atlanta Center
Mon 10:21:31 PM 34.2656 -82.5758 149° Southeast 480 552 37,300 -850 Descending Atlanta Center
Mon 10:22:31 PM 34.1539 -82.4900 148° Southeast 475 547 36,400 -1,000 Descending Atlanta Center
Mon 10:23:31 PM 34.0506 -82.4142 149° Southeast 482 555 35,300 -1,200 Descending Atlanta Center
Mon 10:24:31 PM 33.9347 -82.3311 149° Southeast 482 555 34,000 -1,500 Descending Atlanta Center
Mon 10:25:31 PM 33.8122 -82.2361 147° Southeast 477 549 32,300 -1,750 Descending Atlanta Center
Mon 10:26:31 PM 33.6983 -82.1561 150° Southeast 477 549 30,500 -1,800 Descending Atlanta Center
Mon 10:27:31 PM 33.5825 -82.0864 153° Southeast 477 549 28,700 -1,800 Descending Atlanta Center
Mon 10:28:31 PM 33.4644 -82.0144 153° Southeast 472 543 26,900 -2,400 Descending Atlanta Center
Mon 10:29:31 PM 33.3506 -81.9450 153° Southeast 466 536 23,900 -2,824 Descending Atlanta Center
Mon 10:31:04 PM 33.1850 -81.8428 153° Southeast 438 504 19,700 -2,605 Descending Jacksonville Center
Mon 10:32:03 PM 33.0803 -81.7769 152° Southeast 432 497 17,300 -2,150 Descending Jacksonville Center
Mon 10:33:04 PM 32.9753 -81.7114 152° Southeast 427 491 15,400 -1,835 Descending Jacksonville Center
Mon 10:34:04 PM 32.8850 -81.6581 154° Southeast 420 483 13,600 -1,916 Descending Jacksonville Center
Mon 10:35:03 PM 32.7842 -81.6003 154° Southeast 415 478 11,600 -1,300 Descending Jacksonville Center
Mon 10:36:04 PM 32.6792 -81.5375 153° Southeast 399 459 11,000 -496 Descending Jacksonville Center
Mon 10:37:04 PM 32.6011 -81.4575 139° Southeast 373 429 10,600 -756 Descending Jacksonville Center
Mon 10:38:03 PM 32.5417 -81.3844 134° Southeast 325 374 9,500 -1,311 Descending Jacksonville Center
Mon 10:39:03 PM 32.4844 -81.3114 133° Southeast 312 359 8,000 -1,488 Descending Jacksonville Center
Mon 10:40:04 PM 32.4336 -81.2483 134° Southeast 306 352 6,500 -1,240 Descending Jacksonville Center
Mon 10:41:04 PM 32.3783 -81.1781 133° Southeast 295 339 5,500 -1,000 Descending Jacksonville Center
Mon 10:42:04 PM 32.3147 -81.1006 134° Southeast 295 339 4,500 -950 Descending Jacksonville Center
Mon 10:43:04 PM 32.2594 -81.0328 134° Southeast 288 331 3,600 -857 Descending Jacksonville Center
Mon 10:44:03 PM 32.2022 -80.9725 138° Southeast 288 331 2,800 -814 Descending Jacksonville Center
Mon 10:46:00 PM 32.1167 -81.2000 270° West  Level FlightAware Approximate
Mon 10:53:00 PM 32.1276 -81.2021 270° West  Level Estimated
Mon 10:54:00 PM 32.1276 -81.2021 270° West  Level Estimated
Mon 10:55:00 PM 32.1276 -81.2021 270° West  Level Estimated
Mon 10:56:00 PM 32.1276 -81.2021 270° West  Level Estimated
Mon 10:57:00 PM 32.1276 -81.2021 270° West  Level Estimated
Mon 10:58:00 PM 32.1276 -81.2021 270° West  Level Estimated

Login

Don't have an account? Register now (free) for customized features, flight alerts, and more!